Time;durP1;ratioP1;P1;durP2;ratioP2;P2;SDS_P1;SDS_P2;PMS_P1;PMS_P2;Temp;Humidity;BMP_temperature;BMP_pressure;BME280_temperature;BME280_humidity;BME280_pressure;Samples;Min_cycle;Max_cycle;Signal;HPM_P1;HPM_P2
2023/12/28 00:01:26;;;;;;;2.30;2.10;;;7.50;61.30;;;;;;5123682;27;20048;-81
2023/12/28 00:03:51;;;;;;;2.00;1.90;;;7.50;61.30;;;;;;5123915;27;20089;-81
2023/12/28 00:06:17;;;;;;;2.53;2.10;;;7.50;61.20;;;;;;5119092;27;20039;-81
2023/12/28 00:08:43;;;;;;;2.30;2.10;;;7.50;61.20;;;;;;5128431;27;20023;-81
2023/12/28 00:11:09;;;;;;;2.55;2.20;;;7.50;61.10;;;;;;5117964;28;20042;-81
2023/12/28 00:13:35;;;;;;;2.85;2.20;;;7.50;61.10;;;;;;5119739;27;20035;-81
2023/12/28 00:16:01;;;;;;;2.50;2.30;;;7.40;60.90;;;;;;5137730;27;20019;-81
2023/12/28 00:18:26;;;;;;;3.47;2.10;;;7.40;60.90;;;;;;5135510;27;20027;-81
2023/12/28 00:20:52;;;;;;;2.53;2.30;;;7.40;60.90;;;;;;5124320;27;20034;-79
2023/12/28 00:23:20;;;;;;;2.10;1.90;;;7.40;60.90;;;;;;5131048;27;20019;-80
2023/12/28 00:25:46;;;;;;;3.00;2.20;;;7.40;60.90;;;;;;5127569;27;20035;-81
2023/12/28 00:28:11;;;;;;;2.10;1.90;;;7.40;60.90;;;;;;5128098;27;20050;-81
2023/12/28 00:30:37;;;;;;;2.10;1.90;;;7.40;60.80;;;;;;5124305;28;20032;-81
2023/12/28 00:33:03;;;;;;;2.30;2.10;;;7.40;60.80;;;;;;5118181;28;20032;-81
2023/12/28 00:35:29;;;;;;;2.25;2.05;;;7.40;60.80;;;;;;5119482;27;20050;-81
2023/12/28 00:37:55;;;;;;;2.63;2.05;;;7.40;60.80;;;;;;5121425;27;20478;-81
2023/12/28 00:40:21;;;;;;;3.20;2.00;;;7.40;60.70;;;;;;5115620;27;20481;-81
2023/12/28 00:42:48;;;;;;;2.00;1.80;;;7.30;60.70;;;;;;5096606;28;20052;-80
2023/12/28 00:45:14;;;;;;;2.30;2.03;;;7.40;60.80;;;;;;5103220;28;20077;-80
2023/12/28 00:47:42;;;;;;;2.17;1.98;;;7.40;60.70;;;;;;5117597;28;20039;-82
2023/12/28 00:50:09;;;;;;;3.38;2.15;;;7.40;60.70;;;;;;5129730;27;20433;-81
2023/12/28 00:52:35;;;;;;;2.28;2.00;;;7.40;60.70;;;;;;5137758;27;20038;-79
2023/12/28 00:55:00;;;;;;;2.08;1.88;;;7.40;60.60;;;;;;5130353;27;20119;-81
2023/12/28 00:57:26;;;;;;;1.90;1.80;;;7.40;60.60;;;;;;5117062;27;20102;-80
2023/12/28 00:59:52;;;;;;;2.28;2.05;;;7.40;60.60;;;;;;5112378;28;20024;-80
2023/12/28 01:02:17;;;;;;;2.13;1.90;;;7.50;60.60;;;;;;5099223;28;20028;-81
2023/12/28 01:04:43;;;;;;;1.95;1.77;;;7.50;60.60;;;;;;5121936;27;20032;-81
2023/12/28 01:07:09;;;;;;;1.90;1.80;;;7.50;60.60;;;;;;5115569;28;20035;-80
2023/12/28 01:09:35;;;;;;;2.38;2.17;;;7.50;60.50;;;;;;5126643;27;20028;-80
2023/12/28 01:12:00;;;;;;;1.85;1.75;;;7.50;60.50;;;;;;5125326;27;20023;-81
2023/12/28 01:14:26;;;;;;;2.13;1.92;;;7.50;60.50;;;;;;5129014;27;20035;-80
2023/12/28 01:16:52;;;;;;;3.35;2.10;;;7.50;60.50;;;;;;5137116;27;20027;-80
2023/12/28 01:19:18;;;;;;;2.08;1.90;;;7.50;60.60;;;;;;5125090;27;20468;-82
2023/12/28 01:21:43;;;;;;;2.10;1.90;;;7.50;60.50;;;;;;5118493;27;20122;-80
2023/12/28 01:24:09;;;;;;;2.10;1.88;;;7.40;60.50;;;;;;5118353;27;20037;-81
2023/12/28 01:26:35;;;;;;;2.55;2.00;;;7.40;60.50;;;;;;5118627;27;20027;-80
2023/12/28 01:29:03;;;;;;;2.25;1.92;;;7.40;60.50;;;;;;5115002;28;20032;-81
2023/12/28 01:31:29;;;;;;;2.40;2.17;;;7.40;60.60;;;;;;5118520;27;20043;-81
2023/12/28 01:33:55;;;;;;;2.08;1.92;;;7.40;60.50;;;;;;5129016;27;20433;-82
2023/12/28 01:36:22;;;;;;;1.95;1.85;;;7.40;60.60;;;;;;5097603;28;20059;-81
2023/12/28 01:38:48;;;;;;;3.50;2.20;;;7.40;60.60;;;;;;5115605;27;20030;-80
2023/12/28 01:41:15;;;;;;;2.17;2.03;;;7.40;60.60;;;;;;5127263;27;20073;-80
2023/12/28 01:43:44;;;;;;;2.05;1.90;;;7.40;60.60;;;;;;5116050;27;21894;-81
2023/12/28 01:46:16;;;;;;;2.55;1.92;;;7.30;60.60;;;;;;5114679;28;20427;-79
2023/12/28 01:48:45;;;;;;;1.92;1.83;;;7.40;60.60;;;;;;5107701;28;20030;-80
2023/12/28 01:51:12;;;;;;;2.58;2.08;;;7.40;60.70;;;;;;5117516;27;20038;-81
2023/12/28 01:53:38;;;;;;;2.15;1.95;;;7.30;60.60;;;;;;5114214;28;20028;-80
2023/12/28 01:56:04;;;;;;;2.17;1.98;;;7.30;60.60;;;;;;5134842;27;20079;-81
2023/12/28 01:58:35;;;;;;;2.15;2.00;;;7.30;60.70;;;;;;5136551;27;20031;-81
2023/12/28 02:01:01;;;;;;;2.15;2.05;;;7.30;60.70;;;;;;5135725;27;20192;-81
2023/12/28 02:03:27;;;;;;;2.60;2.17;;;7.30;60.80;;;;;;5114017;27;20031;-80
2023/12/28 02:05:54;;;;;;;1.88;1.77;;;7.30;60.80;;;;;;5117191;27;20042;-79
2023/12/28 02:08:19;;;;;;;2.20;2.00;;;7.40;60.80;;;;;;5135660;27;20439;-80
2023/12/28 02:10:45;;;;;;;2.10;1.90;;;7.30;60.80;;;;;;5117365;27;20110;-81
2023/12/28 02:13:11;;;;;;;2.30;2.10;;;7.30;60.80;;;;;;5120589;27;20023;-79
2023/12/28 02:15:37;;;;;;;2.03;1.90;;;7.30;60.80;;;;;;5123373;27;20062;-81
2023/12/28 02:18:12;;;;;;;1.95;1.85;;;7.40;60.90;;;;;;5124908;27;20507;-81
2023/12/28 02:20:40;;;;;;;2.58;1.90;;;7.30;60.90;;;;;;5110017;28;20027;-80
2023/12/28 02:23:06;;;;;;;2.97;2.00;;;7.30;61.00;;;;;;5115867;27;20031;-81
2023/12/28 02:25:32;;;;;;;2.80;1.90;;;7.30;61.00;;;;;;5118628;27;20031;-80
2023/12/28 02:27:58;;;;;;;2.67;1.90;;;7.30;61.10;;;;;;5115071;28;20030;-80
2023/12/28 02:30:25;;;;;;;2.67;2.20;;;7.30;61.10;;;;;;5115043;28;20031;-80
2023/12/28 02:33:18;;;;;;;2.97;2.30;;;7.30;61.10;;;;;;5125907;27;20035;-81
2023/12/28 02:36:01;;;;;;;2.20;2.00;;;7.30;61.10;;;;;;5120315;27;20062;-80
2023/12/28 02:38:29;;;;;;;2.47;2.10;;;7.30;61.10;;;;;;5115661;28;20061;-81
2023/12/28 02:40:56;;;;;;;3.03;2.72;;;7.30;61.20;;;;;;5115309;28;20051;-80
2023/12/28 02:43:22;;;;;;;2.00;1.90;;;7.30;61.30;;;;;;5131379;27;20035;-79
2023/12/28 02:45:48;;;;;;;2.30;2.10;;;7.30;61.30;;;;;;5114230;28;20481;-81
2023/12/28 02:48:13;;;;;;;1.90;1.80;;;7.30;61.30;;;;;;5116066;28;20026;-79
2023/12/28 02:50:39;;;;;;;2.00;1.90;;;7.30;61.30;;;;;;5115361;28;20023;-80
2023/12/28 02:53:05;;;;;;;2.10;1.90;;;7.30;61.30;;;;;;5128774;27;20034;-81
2023/12/28 02:55:31;;;;;;;2.78;2.22;;;7.30;61.30;;;;;;5130267;27;20370;-80
2023/12/28 02:58:01;;;;;;;2.38;2.17;;;7.30;61.30;;;;;;5128496;27;20035;-80
2023/12/28 03:00:27;;;;;;;2.28;2.00;;;7.30;61.30;;;;;;5116197;27;20051;-81
2023/12/28 03:02:53;;;;;;;1.95;1.80;;;7.30;61.30;;;;;;5130675;27;20098;-80
2023/12/28 03:05:19;;;;;;;3.10;2.00;;;7.30;61.30;;;;;;5124622;27;20473;-80
2023/12/28 03:07:45;;;;;;;2.33;2.08;;;7.30;61.30;;;;;;5114876;28;20365;-81
2023/12/28 03:10:11;;;;;;;3.05;2.40;;;7.30;61.40;;;;;;5115437;28;20386;-80
2023/12/28 03:12:37;;;;;;;2.15;2.05;;;7.20;61.40;;;;;;5113712;27;20035;-80
2023/12/28 03:15:04;;;;;;;2.67;2.40;;;7.30;61.40;;;;;;5125717;27;20038;-80
2023/12/28 03:17:32;;;;;;;2.20;2.00;;;7.30;61.40;;;;;;5113416;28;20035;-81
2023/12/28 03:19:58;;;;;;;3.03;2.10;;;7.30;61.40;;;;;;5116581;27;20365;-80
2023/12/28 03:22:24;;;;;;;1.80;1.70;;;7.30;61.40;;;;;;5130678;27;20031;-82
2023/12/28 03:24:50;;;;;;;2.22;2.03;;;7.30;61.40;;;;;;5121794;27;20035;-81
2023/12/28 03:27:16;;;;;;;2.30;2.10;;;7.30;61.40;;;;;;5116097;28;20027;-79
2023/12/28 03:29:43;;;;;;;2.20;2.00;;;7.30;61.40;;;;;;5133897;27;20422;-79
2023/12/28 03:32:09;;;;;;;2.15;2.00;;;7.30;61.40;;;;;;5130489;28;20461;-80
2023/12/28 03:34:35;;;;;;;2.17;2.00;;;7.30;61.30;;;;;;5114205;28;20067;-79
2023/12/28 03:37:01;;;;;;;2.53;2.00;;;7.30;61.30;;;;;;5110136;28;20062;-81
2023/12/28 03:39:27;;;;;;;2.40;2.20;;;7.30;61.30;;;;;;5113932;28;20028;-80
2023/12/28 03:41:53;;;;;;;2.30;2.10;;;7.20;61.30;;;;;;5115681;28;20484;-80
2023/12/28 03:44:20;;;;;;;2.50;2.30;;;7.20;61.40;;;;;;5130599;28;20118;-80
2023/12/28 03:46:48;;;;;;;2.20;2.00;;;7.20;61.30;;;;;;5124576;27;20058;-80
2023/12/28 03:49:19;;;;;;;2.20;2.00;;;7.20;61.30;;;;;;5131660;28;20030;-81
2023/12/28 03:51:45;;;;;;;2.40;2.20;;;7.20;61.30;;;;;;5112528;28;20031;-81
2023/12/28 03:54:11;;;;;;;2.20;2.10;;;7.20;61.30;;;;;;5128612;27;20027;-80
2023/12/28 03:56:39;;;;;;;1.92;1.80;;;7.20;61.30;;;;;;5134400;28;20019;-82
2023/12/28 03:59:06;;;;;;;3.10;2.13;;;7.20;61.30;;;;;;5134421;27;20038;-81
2023/12/28 04:01:32;;;;;;;2.35;2.00;;;7.20;61.30;;;;;;5112202;28;20058;-81
2023/12/28 04:03:58;;;;;;;2.58;2.00;;;7.20;61.20;;;;;;5132353;28;20039;-80
2023/12/28 04:06:24;;;;;;;2.30;2.10;;;7.20;61.20;;;;;;5112700;28;20024;-81
2023/12/28 04:08:49;;;;;;;2.40;2.10;;;7.20;61.20;;;;;;5113854;28;20431;-82
2023/12/28 04:11:15;;;;;;;1.90;1.80;;;7.20;61.30;;;;;;5115680;28;20058;-81
2023/12/28 04:13:41;;;;;;;2.38;2.17;;;7.20;61.20;;;;;;5115397;28;20114;-79
2023/12/28 04:16:09;;;;;;;2.05;1.95;;;7.20;61.20;;;;;;5115084;28;20084;-79
2023/12/28 04:18:35;;;;;;;2.15;1.98;;;7.20;61.20;;;;;;5121077;28;20015;-81
2023/12/28 04:21:01;;;;;;;2.78;2.08;;;7.20;61.20;;;;;;5112098;28;20450;-80
2023/12/28 04:23:26;;;;;;;2.20;2.00;;;7.20;61.10;;;;;;5123441;27;20453;-81
2023/12/28 04:25:52;;;;;;;2.75;2.30;;;7.20;61.10;;;;;;5126540;28;20040;-80
2023/12/28 04:28:18;;;;;;;2.15;1.95;;;7.20;61.20;;;;;;5118272;28;20062;-80
2023/12/28 04:30:44;;;;;;;2.30;2.10;;;7.10;61.10;;;;;;5129605;27;20023;-80
2023/12/28 04:33:09;;;;;;;2.40;2.20;;;7.10;61.00;;;;;;5134246;28;20027;-81
2023/12/28 04:35:35;;;;;;;2.47;2.20;;;7.10;61.00;;;;;;5107700;28;20059;-80
2023/12/28 04:38:01;;;;;;;2.40;2.10;;;7.10;61.10;;;;;;5113724;28;20036;-80
2023/12/28 04:40:26;;;;;;;2.10;1.90;;;7.10;61.10;;;;;;5112874;27;20054;-81
2023/12/28 04:42:52;;;;;;;2.20;2.00;;;7.10;61.10;;;;;;5124614;27;20408;-81
2023/12/28 04:45:18;;;;;;;2.63;2.20;;;7.10;61.10;;;;;;5116961;28;20039;-81
2023/12/28 04:47:44;;;;;;;2.83;2.30;;;7.10;61.10;;;;;;5117100;28;20107;-81
2023/12/28 04:50:09;;;;;;;2.38;2.00;;;7.00;61.00;;;;;;5117031;27;20454;-81
2023/12/28 04:52:35;;;;;;;2.33;2.08;;;7.00;61.10;;;;;;5128480;27;20035;-79
2023/12/28 04:55:01;;;;;;;2.15;1.95;;;7.10;61.10;;;;;;5132266;27;20032;-80
2023/12/28 04:57:28;;;;;;;2.75;2.20;;;7.10;61.10;;;;;;5127941;27;20031;-81
2023/12/28 04:59:54;;;;;;;2.55;2.10;;;7.10;61.00;;;;;;5137648;27;20381;-81
2023/12/28 05:02:20;;;;;;;2.22;2.03;;;7.00;60.90;;;;;;5113327;27;20027;-82
2023/12/28 05:04:46;;;;;;;2.13;2.00;;;7.00;60.90;;;;;;5113449;28;20036;-78
2023/12/28 05:07:12;;;;;;;2.40;2.20;;;7.00;60.90;;;;;;5101623;27;20366;-79
2023/12/28 05:09:37;;;;;;;2.42;2.22;;;7.00;60.90;;;;;;5117855;27;20121;-82
2023/12/28 05:12:04;;;;;;;2.42;2.22;;;7.00;60.90;;;;;;5136577;27;20034;-81
2023/12/28 05:14:29;;;;;;;2.85;2.20;;;7.00;60.90;;;;;;5114064;28;20080;-78
2023/12/28 05:16:55;;;;;;;2.33;2.13;;;7.00;60.90;;;;;;5116957;28;20099;-83
2023/12/28 05:19:21;;;;;;;3.22;2.03;;;7.00;60.90;;;;;;5127195;27;20057;-79
2023/12/28 05:21:47;;;;;;;2.50;2.20;;;7.00;60.90;;;;;;5137436;27;20106;-85
2023/12/28 05:24:13;;;;;;;2.92;2.45;;;7.00;60.90;;;;;;5125739;27;20059;-84
2023/12/28 05:26:39;;;;;;;3.17;2.20;;;6.90;60.90;;;;;;5099125;28;20020;-81
2023/12/28 05:29:04;;;;;;;2.60;2.35;;;6.90;60.90;;;;;;5106805;27;20034;-89
2023/12/28 05:31:30;;;;;;;2.50;2.20;;;6.90;60.90;;;;;;5129956;27;20397;-88
2023/12/28 05:33:58;;;;;;;3.10;2.15;;;7.00;60.90;;;;;;5129439;27;20473;-88
2023/12/28 05:36:24;;;;;;;2.75;2.50;;;7.00;60.90;;;;;;5115905;28;20104;-78
2023/12/28 05:38:50;;;;;;;2.85;2.20;;;7.00;60.90;;;;;;5130032;27;20035;-78
2023/12/28 05:41:16;;;;;;;2.97;2.28;;;7.00;60.90;;;;;;5126317;27;20469;-75
2023/12/28 05:43:41;;;;;;;2.58;2.10;;;7.00;60.80;;;;;;5094753;28;20073;-79
2023/12/28 05:46:07;;;;;;;3.92;2.63;;;7.00;60.80;;;;;;5114011;28;20070;-79
2023/12/28 05:48:33;;;;;;;2.67;2.40;;;7.00;60.80;;;;;;5090109;27;20084;-78
2023/12/28 05:50:59;;;;;;;2.33;2.10;;;6.90;60.80;;;;;;5133226;27;20030;-80
2023/12/28 05:53:26;;;;;;;4.45;2.50;;;7.00;60.70;;;;;;5092152;28;20034;-80
2023/12/28 05:55:52;;;;;;;3.00;2.45;;;7.00;60.70;;;;;;5131935;27;20495;-79
2023/12/28 05:58:18;;;;;;;2.67;2.40;;;7.00;60.70;;;;;;5133697;27;20092;-79
2023/12/28 06:00:46;;;;;;;3.20;2.50;;;7.00;60.70;;;;;;5107820;27;20051;-79
2023/12/28 06:03:12;;;;;;;2.78;2.38;;;7.00;60.70;;;;;;5109856;27;20075;-80
2023/12/28 06:05:38;;;;;;;2.72;2.30;;;6.90;60.60;;;;;;5117078;27;20031;-80
2023/12/28 06:08:04;;;;;;;3.50;2.50;;;7.00;60.60;;;;;;5104630;28;20024;-79
2023/12/28 06:10:29;;;;;;;2.45;2.25;;;7.00;60.60;;;;;;5111164;28;20024;-81
2023/12/28 06:12:57;;;;;;;2.45;2.25;;;7.00;60.60;;;;;;5114805;28;20468;-79
2023/12/28 06:15:22;;;;;;;2.50;2.30;;;7.00;60.50;;;;;;5113747;28;20120;-79
2023/12/28 06:17:48;;;;;;;2.67;2.20;;;7.00;60.50;;;;;;5113748;28;20055;-80
2023/12/28 06:20:14;;;;;;;2.63;2.13;;;7.00;60.40;;;;;;5114050;28;20385;-80
2023/12/28 06:22:40;;;;;;;3.10;2.50;;;7.00;60.40;;;;;;5113815;28;20460;-80
2023/12/28 06:25:06;;;;;;;2.30;2.10;;;7.00;60.40;;;;;;5096824;28;20076;-79
2023/12/28 06:27:32;;;;;;;2.22;2.03;;;7.00;60.30;;;;;;5113744;28;20031;-80
2023/12/28 06:29:58;;;;;;;3.45;2.50;;;7.00;60.30;;;;;;5127782;27;20471;-81
2023/12/28 06:32:24;;;;;;;2.78;2.10;;;7.00;60.30;;;;;;5117526;27;20031;-79
2023/12/28 06:34:50;;;;;;;2.78;2.55;;;7.00;60.20;;;;;;5135363;27;20034;-80
2023/12/28 06:37:16;;;;;;;3.05;2.50;;;7.00;60.30;;;;;;5117166;27;20031;-78
2023/12/28 06:39:42;;;;;;;3.33;2.30;;;7.00;60.30;;;;;;5134993;27;20489;-80
2023/12/28 06:42:07;;;;;;;4.32;2.90;;;7.00;60.20;;;;;;5117080;27;20066;-80
2023/12/28 06:44:33;;;;;;;3.70;2.53;;;7.00;60.30;;;;;;5135209;27;20031;-80
2023/12/28 06:46:59;;;;;;;2.72;2.40;;;7.00;60.20;;;;;;5116668;27;20027;-79
2023/12/28 06:49:26;;;;;;;2.47;2.28;;;7.00;60.20;;;;;;5113360;28;20030;-78
2023/12/28 06:51:51;;;;;;;2.50;2.30;;;7.00;60.20;;;;;;5113503;28;20028;-79
2023/12/28 06:54:17;;;;;;;3.40;2.63;;;7.00;60.20;;;;;;5113767;28;20035;-79
2023/12/28 06:56:43;;;;;;;2.40;2.20;;;7.00;60.10;;;;;;5113492;28;20025;-80
2023/12/28 06:59:12;;;;;;;2.72;2.53;;;7.00;60.10;;;;;;5119099;27;20023;-80
2023/12/28 07:01:39;;;;;;;3.03;2.50;;;7.00;60.10;;;;;;5113970;27;20489;-81
2023/12/28 07:04:05;;;;;;;3.55;2.55;;;7.10;60.10;;;;;;5113457;28;20113;-79
2023/12/28 07:06:30;;;;;;;3.28;2.55;;;7.10;60.10;;;;;;5113410;28;20127;-79
2023/12/28 07:08:56;;;;;;;3.65;2.63;;;7.20;60.10;;;;;;5114652;28;20035;-79
2023/12/28 07:11:22;;;;;;;2.95;2.30;;;7.20;60.00;;;;;;5114463;28;20098;-79
2023/12/28 07:13:48;;;;;;;2.60;2.40;;;7.20;59.90;;;;;;5116409;27;20057;-80
2023/12/28 07:16:14;;;;;;;2.60;2.40;;;7.30;60.00;;;;;;5116286;27;20031;-81
2023/12/28 07:18:40;;;;;;;2.92;2.33;;;7.30;59.90;;;;;;5134843;27;20477;-80
2023/12/28 07:21:09;;;;;;;2.80;2.50;;;7.30;59.80;;;;;;5116845;27;20023;-79
2023/12/28 07:23:35;;;;;;;2.92;2.40;;;7.30;59.80;;;;;;5116216;27;20042;-79
2023/12/28 07:26:01;;;;;;;3.10;2.50;;;7.30;59.80;;;;;;5116522;27;20043;-79
2023/12/28 07:28:27;;;;;;;3.65;2.67;;;7.30;59.80;;;;;;5116131;28;20037;-81
2023/12/28 07:30:53;;;;;;;3.40;2.47;;;7.30;59.80;;;;;;5135092;27;20023;-80
2023/12/28 07:33:19;;;;;;;2.67;2.35;;;7.30;59.70;;;;;;5116196;28;20386;-80
2023/12/28 07:35:45;;;;;;;2.40;2.20;;;7.30;59.70;;;;;;5116200;28;20023;-80
2023/12/28 07:38:11;;;;;;;4.05;2.92;;;7.40;59.80;;;;;;5134650;27;20465;-81
2023/12/28 07:40:37;;;;;;;3.08;2.60;;;7.40;59.70;;;;;;5116292;28;20042;-80
2023/12/28 07:43:03;;;;;;;4.18;2.58;;;7.40;59.70;;;;;;5112266;28;20080;-79
2023/12/28 07:45:29;;;;;;;3.53;2.60;;;7.40;59.60;;;;;;5113896;28;20028;-80
2023/12/28 07:47:59;;;;;;;3.00;2.70;;;7.50;59.60;;;;;;5112794;28;20389;-83
2023/12/28 07:50:25;;;;;;;2.45;2.22;;;7.50;59.50;;;;;;5112656;28;20076;-80
2023/12/28 07:52:51;;;;;;;2.58;2.20;;;7.50;59.50;;;;;;5112372;28;20024;-80
2023/12/28 07:55:19;;;;;;;4.40;2.80;;;7.50;59.40;;;;;;5112821;28;20019;-80
2023/12/28 07:57:45;;;;;;;3.08;2.47;;;7.60;59.40;;;;;;5113434;28;20114;-81
2023/12/28 08:00:11;;;;;;;2.83;2.30;;;7.60;59.40;;;;;;5113000;28;20083;-80
2023/12/28 08:02:38;;;;;;;3.13;2.50;;;7.50;59.30;;;;;;5114278;28;20023;-82
2023/12/28 08:05:04;;;;;;;3.63;2.67;;;7.50;59.30;;;;;;5113663;28;20027;-81
2023/12/28 08:07:30;;;;;;;3.50;2.30;;;7.60;59.40;;;;;;5114148;28;20030;-80
2023/12/28 08:09:56;;;;;;;3.53;2.17;;;7.60;59.30;;;;;;5112560;28;20020;-79
2023/12/28 08:12:24;;;;;;;3.35;2.60;;;7.60;59.30;;;;;;5112271;28;20031;-81
2023/12/28 08:14:50;;;;;;;2.95;2.50;;;7.60;59.30;;;;;;5113734;28;20024;-80
2023/12/28 08:17:16;;;;;;;2.80;2.38;;;7.60;59.20;;;;;;5116237;28;20122;-79
2023/12/28 08:19:42;;;;;;;4.63;2.80;;;7.60;59.20;;;;;;5116283;28;20115;-79
2023/12/28 08:22:07;;;;;;;2.70;2.50;;;7.60;59.20;;;;;;5118841;27;20064;-78
2023/12/28 08:24:34;;;;;;;3.35;2.50;;;7.60;59.20;;;;;;5119361;27;20034;-81
2023/12/28 08:27:00;;;;;;;2.83;2.30;;;7.60;59.10;;;;;;5119175;27;20472;-79
2023/12/28 08:29:26;;;;;;;2.88;2.35;;;7.70;59.20;;;;;;5138029;27;20026;-80
2023/12/28 08:31:55;;;;;;;2.60;2.20;;;7.60;59.10;;;;;;5136782;27;20029;-82
2023/12/28 08:34:21;;;;;;;2.60;2.40;;;7.70;59.10;;;;;;5113669;28;20035;-78
2023/12/28 08:36:47;;;;;;;2.78;2.40;;;7.70;59.10;;;;;;5099172;28;20036;-80
2023/12/28 08:39:13;;;;;;;2.85;2.42;;;7.70;59.00;;;;;;5100268;27;20397;-80
2023/12/28 08:41:39;;;;;;;3.58;2.50;;;7.80;59.00;;;;;;5103922;27;20032;-77
2023/12/28 08:44:04;;;;;;;2.72;2.50;;;7.80;58.90;;;;;;5118401;27;20031;-77
2023/12/28 08:46:31;;;;;;;3.13;2.20;;;7.80;58.90;;;;;;5119626;27;20069;-77
2023/12/28 08:48:56;;;;;;;2.70;2.30;;;7.80;58.90;;;;;;5104120;28;20028;-80
2023/12/28 08:51:22;;;;;;;2.20;2.03;;;7.80;58.90;;;;;;5098962;28;20034;-75
2023/12/28 08:53:48;;;;;;;3.10;2.53;;;7.90;58.90;;;;;;5102716;28;20027;-79
2023/12/28 08:56:19;;;;;;;3.67;2.35;;;7.90;58.80;;;;;;5121690;27;20290;-78
2023/12/28 08:58:49;;;;;;;3.47;2.60;;;8.00;58.80;;;;;;5137278;27;20030;-77
2023/12/28 09:01:22;;;;;;;2.08;1.98;;;8.00;58.70;;;;;;5137232;27;20077;-78
2023/12/28 09:03:52;;;;;;;2.65;2.40;;;8.00;58.70;;;;;;5115889;27;20474;-78
2023/12/28 09:06:19;;;;;;;3.25;2.10;;;8.00;58.70;;;;;;5104085;27;20032;-79
2023/12/28 09:08:47;;;;;;;2.45;2.25;;;8.10;58.70;;;;;;5105971;27;20065;-78
2023/12/28 09:11:14;;;;;;;2.55;2.35;;;8.10;58.70;;;;;;5137530;27;20038;-77
2023/12/28 09:13:40;;;;;;;4.03;2.20;;;8.10;59.20;;;;;;5118630;27;20030;-78
2023/12/28 09:16:07;;;;;;;2.50;2.30;;;8.10;58.60;;;;;;5117438;27;20466;-79
2023/12/28 09:18:33;;;;;;;2.30;2.10;;;8.20;58.70;;;;;;5116140;28;20374;-77
2023/12/28 09:20:59;;;;;;;2.50;2.30;;;8.20;58.60;;;;;;5116256;28;20096;-78
2023/12/28 09:23:25;;;;;;;4.20;2.50;;;8.20;58.60;;;;;;5114857;28;20047;-77
2023/12/28 09:25:51;;;;;;;2.55;2.35;;;8.30;58.50;;;;;;5114749;28;20534;-79
2023/12/28 09:28:16;;;;;;;3.85;2.40;;;8.30;58.50;;;;;;5115741;28;20088;-76
2023/12/28 09:30:42;;;;;;;2.47;2.20;;;8.30;58.40;;;;;;5115191;28;20034;-77
2023/12/28 09:33:08;;;;;;;3.10;2.30;;;8.30;58.30;;;;;;5116339;27;20028;-77
2023/12/28 09:35:35;;;;;;;3.22;2.20;;;8.30;58.20;;;;;;5114789;28;20035;-78
2023/12/28 09:38:01;;;;;;;2.70;2.38;;;8.40;58.30;;;;;;5114900;28;20031;-78
2023/12/28 09:40:27;;;;;;;2.83;2.15;;;8.30;58.20;;;;;;5114854;28;20479;-78
2023/12/28 09:43:26;;;;;;;3.03;2.60;;;8.30;58.20;;;;;;5114843;28;20023;-76
2023/12/28 09:45:53;;;;;;;2.67;2.42;;;8.30;58.10;;;;;;5092596;28;20100;-79
2023/12/28 09:48:20;;;;;;;3.75;2.75;;;8.40;58.30;;;;;;5114410;28;20123;-77
2023/12/28 09:50:55;;;;;;;2.90;2.60;;;8.40;58.20;;;;;;5100335;28;20058;-78
2023/12/28 09:53:25;;;;;;;3.70;2.60;;;8.40;58.30;;;;;;5111318;27;20457;-78
2023/12/28 09:55:54;;;;;;;2.60;2.40;;;8.40;58.30;;;;;;5117623;27;20041;-76
2023/12/28 09:58:21;;;;;;;5.30;2.65;;;8.40;58.20;;;;;;5116012;27;20034;-76
2023/12/28 10:00:49;;;;;;;4.57;2.53;;;8.50;58.20;;;;;;5124637;27;20417;-77
2023/12/28 10:03:15;;;;;;;3.45;2.50;;;8.50;58.20;;;;;;5077016;28;20024;-76
2023/12/28 10:05:42;;;;;;;3.35;2.50;;;8.40;58.10;;;;;;5135270;27;20037;-77
2023/12/28 10:08:08;;;;;;;3.83;2.60;;;8.40;58.10;;;;;;5136000;27;20031;-77
2023/12/28 10:10:34;;;;;;;5.22;2.60;;;8.50;58.10;;;;;;5117666;27;20038;-78
2023/12/28 10:13:02;;;;;;;4.38;2.90;;;8.40;58.10;;;;;;5136385;27;20115;-76
2023/12/28 10:15:27;;;;;;;4.18;2.63;;;8.40;58.10;;;;;;5118013;27;20463;-76
2023/12/28 10:17:53;;;;;;;3.83;2.50;;;8.40;58.10;;;;;;5136329;27;20060;-77
2023/12/28 10:20:19;;;;;;;3.63;2.67;;;8.40;58.10;;;;;;5135827;27;20465;-77
2023/12/28 10:22:45;;;;;;;4.00;2.47;;;8.40;58.20;;;;;;5135738;27;20023;-77
2023/12/28 10:25:12;;;;;;;3.72;2.70;;;8.40;58.20;;;;;;5117580;27;20569;-79
2023/12/28 10:27:42;;;;;;;4.43;2.90;;;8.40;58.20;;;;;;5113906;27;20571;-76
2023/12/28 10:30:10;;;;;;;2.67;2.30;;;8.50;58.20;;;;;;5113837;28;20032;-78
2023/12/28 10:32:39;;;;;;;3.67;2.58;;;8.50;58.10;;;;;;5113972;28;20032;-77
2023/12/28 10:35:05;;;;;;;2.90;2.53;;;8.50;58.10;;;;;;5114962;28;20055;-77
2023/12/28 10:37:35;;;;;;;3.55;2.80;;;8.60;58.10;;;;;;5115015;28;20068;-77
2023/12/28 10:40:08;;;;;;;3.13;2.47;;;8.60;58.10;;;;;;5114873;28;20463;-77
2023/12/28 10:42:45;;;;;;;3.92;2.85;;;8.60;58.00;;;;;;5113540;28;20031;-77
2023/12/28 10:45:11;;;;;;;2.78;2.50;;;8.70;58.00;;;;;;5114734;28;20114;-76
2023/12/28 10:47:39;;;;;;;3.80;2.60;;;8.70;57.90;;;;;;5113566;28;20458;-76
2023/12/28 10:50:07;;;;;;;2.40;2.20;;;8.80;57.80;;;;;;5113607;28;20388;-77
2023/12/28 10:52:34;;;;;;;3.20;2.25;;;8.80;57.80;;;;;;5114669;28;20030;-77
2023/12/28 10:55:19;;;;;;;3.63;2.40;;;8.80;57.80;;;;;;5113477;28;20040;-77
2023/12/28 10:58:10;;;;;;;3.13;2.25;;;8.80;57.70;;;;;;5115821;27;20469;-77
2023/12/28 11:00:41;;;;;;;2.90;2.50;;;8.80;57.70;;;;;;5076238;28;20135;-77
2023/12/28 11:03:10;;;;;;;2.25;2.10;;;8.90;57.70;;;;;;5094121;28;20024;-76
2023/12/28 11:05:40;;;;;;;3.30;2.45;;;8.90;57.70;;;;;;5075967;28;20130;-77
2023/12/28 11:08:07;;;;;;;2.72;2.42;;;8.90;57.70;;;;;;5094670;28;20032;-76
2023/12/28 11:10:34;;;;;;;2.78;2.50;;;8.90;57.60;;;;;;5076179;28;20071;-77
2023/12/28 11:13:02;;;;;;;3.33;2.42;;;8.90;57.60;;;;;;5075729;28;20051;-77
2023/12/28 11:15:29;;;;;;;3.10;2.40;;;8.90;57.60;;;;;;5075986;28;20081;-77
2023/12/28 11:17:55;;;;;;;2.40;2.10;;;8.90;57.60;;;;;;5093697;28;20043;-76
2023/12/28 11:20:21;;;;;;;2.65;2.40;;;8.90;57.60;;;;;;5093679;28;20024;-75
2023/12/28 11:22:49;;;;;;;3.33;2.53;;;9.00;57.70;;;;;;5076023;28;20413;-77
2023/12/28 11:25:16;;;;;;;2.67;2.40;;;9.00;57.60;;;;;;5075990;28;20521;-76
2023/12/28 11:27:42;;;;;;;2.63;2.30;;;9.00;57.60;;;;;;5099513;28;20064;-77
2023/12/28 11:30:10;;;;;;;2.50;2.22;;;9.00;57.50;;;;;;5127939;28;20465;-77
2023/12/28 11:32:36;;;;;;;3.13;2.50;;;9.00;57.50;;;;;;5135113;28;20039;-77
2023/12/28 11:35:06;;;;;;;3.17;2.58;;;9.10;57.50;;;;;;5134705;28;20457;-78
2023/12/28 11:37:33;;;;;;;2.50;2.30;;;9.10;57.40;;;;;;5116595;28;20472;-76
2023/12/28 11:40:09;;;;;;;2.85;2.58;;;9.20;57.40;;;;;;5116398;28;20147;-77
2023/12/28 11:42:35;;;;;;;3.15;2.42;;;9.20;57.40;;;;;;5134478;27;20035;-77
2023/12/28 11:45:00;;;;;;;3.88;2.40;;;9.20;57.40;;;;;;5134261;27;20392;-76
2023/12/28 11:47:29;;;;;;;3.35;2.55;;;9.30;57.40;;;;;;5116344;28;20110;-77
2023/12/28 11:49:55;;;;;;;3.33;2.50;;;9.30;57.30;;;;;;5134839;27;20354;-78
2023/12/28 11:52:26;;;;;;;3.50;2.50;;;9.30;57.20;;;;;;5120135;27;20122;-77
2023/12/28 11:54:52;;;;;;;3.08;2.35;;;9.30;57.20;;;;;;5135148;27;20023;-77
2023/12/28 11:57:18;;;;;;;3.40;2.45;;;9.40;57.20;;;;;;5122578;27;20068;-78
2023/12/28 11:59:44;;;;;;;2.92;2.33;;;9.40;57.10;;;;;;5116928;28;20032;-77
2023/12/28 12:02:11;;;;;;;4.15;2.63;;;9.30;57.00;;;;;;5116887;28;20523;-77
2023/12/28 12:04:37;;;;;;;3.40;2.55;;;9.40;57.00;;;;;;5116568;27;20080;-76
2023/12/28 12:07:06;;;;;;;3.33;2.38;;;9.40;56.90;;;;;;5117704;28;20031;-78
2023/12/28 12:09:34;;;;;;;2.22;2.03;;;9.40;56.90;;;;;;5116679;28;20470;-77
2023/12/28 12:12:04;;;;;;;3.05;2.40;;;9.40;56.90;;;;;;5116318;28;20474;-77
2023/12/28 12:14:31;;;;;;;2.30;2.10;;;9.40;56.80;;;;;;5117802;28;20027;-77
2023/12/28 12:16:58;;;;;;;3.45;2.20;;;9.30;56.70;;;;;;5117734;28;20024;-78
2023/12/28 12:19:25;;;;;;;4.15;2.40;;;9.30;56.80;;;;;;5117461;28;20016;-77
2023/12/28 12:21:52;;;;;;;3.10;2.28;;;9.30;56.80;;;;;;5117454;28;20538;-77
2023/12/28 12:24:18;;;;;;;2.22;2.03;;;9.30;56.80;;;;;;5115466;28;20041;-78
2023/12/28 12:26:46;;;;;;;2.95;2.30;;;9.30;56.80;;;;;;5116017;28;20036;-77
2023/12/28 12:29:12;;;;;;;2.47;2.10;;;9.20;56.80;;;;;;5116206;28;20039;-79
2023/12/28 12:31:41;;;;;;;3.28;2.40;;;9.20;56.90;;;;;;5131240;27;20024;-77
2023/12/28 12:34:07;;;;;;;2.90;2.20;;;9.20;56.90;;;;;;5137907;27;20027;-77
2023/12/28 12:36:34;;;;;;;2.35;2.15;;;9.20;56.90;;;;;;5119484;27;20440;-77
2023/12/28 12:39:00;;;;;;;2.80;2.30;;;9.20;57.00;;;;;;5119216;27;20106;-78
2023/12/28 12:41:26;;;;;;;3.10;2.47;;;9.20;57.00;;;;;;5137851;27;20433;-77
2023/12/28 12:43:55;;;;;;;2.50;2.30;;;9.10;57.00;;;;;;5119216;27;20027;-78
2023/12/28 12:46:21;;;;;;;2.55;2.10;;;9.10;57.00;;;;;;5119809;27;20458;-78
2023/12/28 12:49:02;;;;;;;3.65;2.38;;;9.10;57.10;;;;;;5119411;27;20027;-78
2023/12/28 12:51:28;;;;;;;3.55;2.40;;;9.10;57.00;;;;;;5137760;27;20023;-76
2023/12/28 12:54:01;;;;;;;3.25;2.10;;;9.10;57.00;;;;;;5130195;27;20088;-78
2023/12/28 12:56:27;;;;;;;3.22;2.38;;;9.10;57.00;;;;;;5116112;28;20530;-77